Terminal Aerodrome Forecast
Issued by NWS North Platte, NE

Home | Current Version | Previous Version | Text Only | Print | Product List | Glossary On
Versions: 1 2 3 4 5 6 7 8 9 10 11 12 13 14 15 16 17 18 19 20 21 22 23
000
FTUS43 KLBF 071100
TAFVTN
TAF
KVTN 071128Z 0712/0812 VRB03KT P6SM SKC
     FM071600 15012KT P6SM SCT250
     FM072100 15012KT P6SM BKN070 OVC200
     FM080600 16008KT P6SM BKN100 OVC200=

USA.gov is the U.S. government's official web portal to all federal, state and local government web resources and services.